Mound City, Texas
Current Conditions -  °F | °C
As of 10:15 AM on Saturday 20 Dec 2014 (Local Time) from KDKR Reporting Station
Overcast Overcast  
Wind Chill: 52°   Ceiling: 600
Heat Index: 52°   Visibility: NA
Dew Point: 48°   Wind: 8mph
Humidity: 88%   Direction: 50°NE
Pressure: 30.27"   Gusts: NA
Location:  31.4982°N, 95.4177°W
Report Text: KDKR 201615Z AUTO 05007KT OVC006 11/09 A3027 RMK AO2
Loading
Personal Weather Stations






























Interactive Weather Map New forecast layout! Learn more

10-Day Weather Forecast

Advertisements
Track Severe Weather on mobile